createdAt,value
2023-06-07T00:01:14.473Z,24.40
2023-06-07T00:06:17.715Z,24.40
2023-06-07T00:11:22.491Z,24.40
2023-06-07T00:16:27.294Z,24.40
2023-06-07T00:21:31.278Z,24.40
2023-06-07T00:26:34.231Z,24.40
2023-06-07T00:31:38.808Z,24.40
2023-06-07T00:36:41.679Z,24.40
2023-06-07T00:41:44.552Z,24.40
2023-06-07T00:46:48.872Z,24.40
2023-06-07T00:51:52.162Z,24.50
2023-06-07T00:56:55.675Z,24.40
2023-06-07T01:02:02.473Z,24.40
2023-06-07T01:07:08.585Z,24.40
2023-06-07T01:12:18.048Z,24.40
2023-06-07T01:17:25.546Z,24.40
2023-06-07T01:22:31.657Z,24.40
2023-06-07T01:27:38.216Z,24.40
2023-06-07T01:32:42.604Z,24.40
2023-06-07T01:37:47.396Z,24.40
2023-06-07T01:42:52.690Z,24.40
2023-06-07T01:47:55.813Z,24.40
2023-06-07T01:52:58.714Z,24.40
2023-06-07T01:58:14.303Z,24.40
2023-06-07T02:03:22.567Z,24.30
2023-06-07T02:08:31.854Z,24.30
2023-06-07T02:13:39.818Z,24.30
2023-06-07T02:18:42.705Z,24.40
2023-06-07T02:23:46.114Z,24.30
2023-06-07T02:28:50.351Z,24.30
2023-06-07T02:33:53.251Z,24.30
2023-06-07T02:38:56.135Z,24.30
2023-06-07T02:44:00.378Z,24.30
2023-06-07T02:49:03.221Z,24.30
2023-06-07T02:54:10.217Z,24.30
2023-06-07T02:59:14.535Z,24.30
2023-06-07T03:04:19.765Z,24.30
2023-06-07T03:09:22.653Z,24.30
2023-06-07T03:14:26.834Z,24.30
2023-06-07T03:19:29.681Z,24.30
2023-06-07T03:24:32.589Z,24.30
2023-06-07T03:29:36.946Z,24.30
2023-06-07T03:34:42.745Z,24.30
2023-06-07T03:39:45.665Z,24.30
2023-06-07T03:44:49.813Z,24.30
2023-06-07T03:49:52.634Z,24.30
2023-06-07T03:54:55.519Z,24.30
2023-06-07T04:00:00.182Z,24.40
2023-06-07T04:05:03.537Z,24.50
2023-06-07T04:10:07.666Z,24.70
2023-06-07T04:15:12.509Z,25.00
2023-06-07T04:20:16.448Z,25.30
2023-06-07T04:25:19.410Z,25.40
2023-06-07T04:30:24.950Z,25.50
2023-06-07T04:35:32.754Z,25.60
2023-06-07T04:40:42.092Z,25.70
2023-06-07T04:45:50.026Z,25.70
2023-06-07T04:50:53.362Z,25.70
2023-06-07T04:55:57.354Z,25.80
2023-06-07T05:01:01.798Z,25.80
2023-06-07T05:06:05.302Z,25.80
2023-06-07T05:11:08.252Z,25.90
2023-06-07T05:16:17.392Z,25.90
2023-06-07T05:21:20.706Z,25.60
2023-06-07T05:26:24.239Z,25.30
2023-06-07T05:31:30.443Z,25.10
2023-06-07T05:36:36.123Z,25.00
2023-06-07T05:41:39.453Z,25.00
2023-06-07T05:46:43.647Z,24.90
2023-06-07T05:51:46.558Z,24.80
2023-06-07T05:56:49.416Z,24.80
2023-06-07T06:01:54.364Z,24.90
2023-06-07T06:06:57.370Z,24.90
2023-06-07T06:12:00.735Z,24.90
2023-06-07T06:17:05.235Z,24.90
2023-06-07T06:22:08.231Z,25.10
2023-06-07T06:27:11.943Z,25.40
2023-06-07T06:32:16.416Z,25.70
2023-06-07T06:37:19.304Z,25.80
2023-06-07T06:42:22.286Z,25.90
2023-06-07T06:47:26.696Z,26.10
2023-06-07T06:52:29.695Z,26.20
2023-06-07T06:57:32.713Z,26.20
2023-06-07T07:02:36.972Z,26.30
2023-06-07T07:07:40.576Z,26.40
2023-06-07T07:12:44.310Z,26.50
2023-06-07T07:17:50.131Z,26.50
2023-06-07T07:22:53.103Z,26.50
2023-06-07T07:27:56.185Z,26.60
2023-06-07T07:33:01.972Z,26.60
2023-06-07T07:38:06.382Z,26.60
2023-06-07T07:43:13.257Z,26.60
2023-06-07T07:48:17.461Z,26.60
2023-06-07T07:53:20.296Z,26.70
2023-06-07T07:58:23.139Z,26.60
2023-06-07T08:03:27.397Z,26.70
2023-06-07T08:08:30.488Z,26.60
2023-06-07T08:13:33.329Z,26.60
2023-06-07T08:18:37.581Z,26.60
2023-06-07T08:23:41.912Z,26.60
2023-06-07T08:28:44.873Z,26.60
2023-06-07T08:33:49.073Z,26.60
2023-06-07T08:38:51.869Z,26.60
2023-06-07T08:43:54.715Z,26.60
2023-06-07T08:49:00.820Z,26.50
2023-06-07T08:54:05.364Z,26.50
2023-06-07T08:59:08.974Z,26.60
2023-06-07T09:04:14.164Z,26.60
2023-06-07T09:09:17.232Z,26.50
2023-06-07T09:14:20.206Z,26.50
2023-06-07T09:19:34.888Z,26.50
2023-06-07T09:24:39.357Z,26.50
2023-06-07T09:29:43.492Z,26.40
2023-06-07T09:34:51.692Z,26.40
2023-06-07T09:40:08.910Z,26.40
2023-06-07T09:45:18.077Z,26.40
2023-06-07T09:50:22.423Z,26.40
2023-06-07T09:55:29.538Z,26.40
2023-06-07T10:00:44.213Z,26.40
2023-06-07T10:05:48.752Z,26.40
2023-06-07T10:10:54.904Z,26.40
2023-06-07T10:15:58.805Z,26.40
2023-06-07T10:21:05.074Z,26.40
2023-06-07T10:26:16.990Z,26.40
2023-06-07T10:31:21.924Z,26.40
2023-06-07T10:36:26.868Z,26.30
2023-06-07T10:41:30.326Z,26.40
2023-06-07T10:46:33.318Z,26.40
2023-06-07T10:52:05.141Z,26.30
2023-06-07T10:57:08.036Z,26.30
2023-06-07T11:02:24.593Z,26.40
2023-06-07T11:07:32.106Z,26.40
2023-06-07T11:12:56.119Z,26.30
2023-06-07T11:18:01.367Z,26.30
2023-06-07T11:23:30.624Z,26.30
2023-06-07T11:28:34.936Z,26.30
2023-06-07T11:33:38.178Z,26.30
2023-06-07T11:38:43.682Z,26.30
2023-06-07T11:43:47.790Z,26.30
2023-06-07T11:48:50.890Z,26.30
2023-06-07T11:54:00.889Z,26.30
2023-06-07T11:59:03.851Z,26.30
2023-06-07T12:04:07.159Z,26.30
2023-06-07T12:09:17.100Z,26.30
2023-06-07T12:14:32.052Z,26.30
2023-06-07T12:19:34.941Z,26.30
2023-06-07T12:24:42.565Z,26.30
2023-06-07T12:29:45.800Z,26.20
2023-06-07T12:34:48.793Z,26.20
2023-06-07T12:39:53.314Z,26.20
2023-06-07T12:44:56.726Z,26.20
2023-06-07T12:50:00.674Z,26.20
2023-06-07T12:55:05.866Z,26.20
2023-06-07T13:00:10.369Z,26.20
2023-06-07T13:05:14.008Z,26.20
2023-06-07T13:10:20.132Z,26.20
2023-06-07T13:15:23.583Z,26.20
2023-06-07T13:20:26.450Z,26.20
2023-06-07T13:25:30.675Z,26.20
2023-06-07T13:30:33.594Z,26.20
2023-06-07T13:35:37.990Z,26.20
2023-06-07T13:40:42.325Z,26.20
2023-06-07T13:45:46.499Z,26.20
2023-06-07T13:50:50.053Z,26.20
2023-06-07T13:55:54.278Z,26.20
2023-06-07T14:00:57.203Z,26.20
2023-06-07T14:06:00.412Z,26.20
2023-06-07T14:11:05.584Z,26.20
2023-06-07T14:16:08.505Z,26.20
2023-06-07T14:21:11.520Z,26.20
2023-06-07T14:26:16.479Z,26.20
2023-06-07T14:31:21.952Z,26.20
2023-06-07T14:36:24.910Z,26.20
2023-06-07T14:41:29.118Z,26.20
2023-06-07T14:46:31.936Z,26.20
2023-06-07T14:51:34.783Z,26.30
2023-06-07T14:56:39.010Z,26.30
2023-06-07T15:01:42.201Z,26.20
2023-06-07T15:06:45.148Z,26.30
2023-06-07T15:11:49.360Z,26.30
2023-06-07T15:16:52.309Z,26.30
2023-06-07T15:21:55.138Z,26.30
2023-06-07T15:26:59.337Z,26.30
2023-06-07T15:32:02.218Z,26.30
2023-06-07T15:37:07.216Z,26.30
2023-06-07T15:42:12.540Z,26.30
2023-06-07T15:47:18.104Z,26.30
2023-06-07T15:52:20.987Z,26.30
2023-06-07T15:57:25.764Z,26.30
2023-06-07T16:02:28.837Z,26.30
2023-06-07T16:07:31.703Z,26.40
2023-06-07T16:12:35.917Z,26.40
2023-06-07T16:17:38.905Z,26.40
2023-06-07T16:22:41.798Z,26.40
2023-06-07T16:27:46.051Z,26.40
2023-06-07T16:32:49.813Z,26.40
2023-06-07T16:37:52.696Z,26.40
2023-06-07T16:42:56.913Z,26.40
2023-06-07T16:48:00.268Z,26.40
2023-06-07T16:53:03.157Z,26.40
2023-06-07T16:58:07.366Z,26.40
2023-06-07T17:03:10.339Z,26.40
2023-06-07T17:08:14.300Z,26.40
2023-06-07T17:13:18.530Z,26.40
2023-06-07T17:18:22.076Z,26.40
2023-06-07T17:23:25.115Z,26.40
2023-06-07T17:28:29.357Z,26.40
2023-06-07T17:33:32.232Z,26.40
2023-06-07T17:38:35.409Z,26.30
2023-06-07T17:43:39.675Z,26.30
2023-06-07T17:48:42.531Z,26.30
2023-06-07T17:53:46.762Z,26.30
2023-06-07T17:58:52.044Z,26.30
2023-06-07T18:03:55.831Z,26.30
2023-06-07T18:08:58.714Z,26.30
2023-06-07T18:14:02.977Z,26.30
2023-06-07T18:19:05.857Z,26.30
2023-06-07T18:24:08.925Z,26.20
2023-06-07T18:29:14.321Z,26.20
2023-06-07T18:34:18.942Z,26.20
2023-06-07T18:39:22.901Z,26.20
2023-06-07T18:44:27.259Z,26.10
2023-06-07T18:49:30.134Z,26.10
2023-06-07T18:54:33.027Z,26.10
2023-06-07T18:59:37.262Z,26.10
2023-06-07T19:04:40.396Z,26.00
2023-06-07T19:09:45.003Z,26.00
2023-06-07T19:14:49.236Z,25.90
2023-06-07T19:19:52.182Z,25.90
2023-06-07T19:24:55.484Z,25.90
2023-06-07T19:29:59.674Z,25.90
2023-06-07T19:35:04.806Z,25.80
2023-06-07T19:40:09.692Z,25.80
2023-06-07T19:45:13.985Z,25.80
2023-06-07T19:50:16.943Z,25.80
2023-06-07T19:55:19.943Z,25.70
2023-06-07T20:00:24.305Z,25.80
2023-06-07T20:05:27.219Z,25.70
2023-06-07T20:10:30.037Z,25.70
2023-06-07T20:15:34.272Z,25.70
2023-06-07T20:20:37.558Z,25.60
2023-06-07T20:25:40.403Z,25.70
2023-06-07T20:30:44.606Z,25.60
2023-06-07T20:35:47.790Z,25.60
2023-06-07T20:40:50.757Z,25.60
2023-06-07T20:45:55.006Z,25.60
2023-06-07T20:50:57.992Z,25.50
2023-06-07T20:56:01.008Z,25.60
2023-06-07T21:01:05.382Z,25.60
2023-06-07T21:06:08.355Z,25.50
2023-06-07T21:11:11.314Z,25.50
2023-06-07T21:16:17.240Z,25.50
2023-06-07T21:21:20.147Z,25.50
2023-06-07T21:26:23.655Z,25.50
2023-06-07T21:31:27.896Z,25.40
2023-06-07T21:36:31.458Z,25.40
2023-06-07T21:41:34.296Z,25.40
2023-06-07T21:46:38.593Z,25.40
2023-06-07T21:51:41.547Z,25.40
2023-06-07T21:56:45.410Z,25.40
2023-06-07T22:01:50.692Z,25.40
2023-06-07T22:06:53.534Z,25.40
2023-06-07T22:11:57.846Z,25.40
2023-06-07T22:17:03.297Z,25.40
2023-06-07T22:22:06.892Z,25.40
2023-06-07T22:27:10.400Z,25.20
2023-06-07T22:32:15.354Z,25.10
2023-06-07T22:37:22.035Z,24.90
2023-06-07T22:42:24.887Z,24.80
2023-06-07T22:47:31.076Z,24.60
2023-06-07T22:52:35.866Z,24.70
2023-06-07T22:57:38.769Z,24.80
2023-06-07T23:02:43.596Z,24.90
2023-06-07T23:07:49.980Z,24.90
2023-06-07T23:12:53.852Z,24.90
2023-06-07T23:17:59.448Z,24.90
2023-06-07T23:23:04.260Z,25.00
2023-06-07T23:28:07.655Z,25.00
2023-06-07T23:33:12.916Z,25.00
2023-06-07T23:38:16.021Z,25.00
2023-06-07T23:43:18.963Z,25.00
2023-06-07T23:48:26.014Z,25.00
2023-06-07T23:53:28.927Z,25.10
2023-06-07T23:58:31.957Z,25.10
